M I D A S
Marine Information and Data Acquisition System
Tripno 2285 of the Zeeleeuw from 2012-04-05 06:32:25 to 2012-04-05 14:15:10
Back to CruiseResearch ActivitiesStationsMapUnderway DataData graphs

EquipmentUnitsComments
TimeDGPSUTC
LatitudeDGPSDM.mWGS84
LongitudeDGPSDM.mWGS84
SpeedMeteo Stationm/sRelative wind speed
DirectionMeteo StationdegRelative wind direction
TemperatureMeteo Stationdeg CelciusAir temperature
PressureMeteo StationPaAtmospheric pressure
HumidityMeteo Station%Relative humidity
Missing or incorrect values are displayed as -999
Metereological data collected by the RV Zeeleeuw from 2012-04-05 06:34:02 to 2012-04-05 14:26:06
                                                                                    Next 1000 lines
Time Latitude Longitude Speed Direction Temperature Pressure Humidity
2012-04-05 06:34:12 51°13.637 2°56.017 1.2 243 7 101680 50
2012-04-05 06:34:17 51°13.637 2°56.017 2.2 21 7 101680 51
2012-04-05 06:34:22 51°13.637 2°56.017 2.9 242 7 101680 51
2012-04-05 06:34:27 51°13.637 2°56.017 2.5 19 7 101680 51
2012-04-05 06:34:32 51°13.637 2°56.017 3.3 246 7 101680 51
2012-04-05 06:34:37 51°13.637 2°56.017 3.9 249 7 101680 50
2012-04-05 06:34:42 51°13.637 2°56.017 2.1 34 7 101680 50
2012-04-05 06:34:47 51°13.637 2°56.017 5 22 7 101680 51
2012-04-05 06:34:52 51°13.636 2°56.017 2.7 233 7 101680 51
2012-04-05 06:34:57 51°13.636 2°56.017 2.4 20 7 101680 50
2012-04-05 06:35:02 51°13.636 2°56.017 1.9 246 7 101680 50
2012-04-05 06:35:07 51°13.636 2°56.017 3 244 7 101680 50
2012-04-05 06:35:12 51°13.636 2°56.017 3.6 237 7 101680 50
2012-04-05 06:35:17 51°13.636 2°56.017 3.1 22 7 101680 51
2012-04-05 06:35:22 51°13.635 2°56.017 4.9 321 7 101680 51
2012-04-05 06:35:27 51°13.635 2°56.017 5.5 24 7 101680 50
2012-04-05 06:35:32 51°13.635 2°56.017 3.7 35 7 101680 50
2012-04-05 06:35:37 51°13.635 2°56.017 3.3 21 7 101680 51
2012-04-05 06:35:42 51°13.635 2°56.017 3.4 34 7 101680 51
2012-04-05 06:35:47 51°13.634 2°56.016 3.9 23 7 101680 49
2012-04-05 06:35:52 51°13.634 2°56.016 2.5 30 7 101680 49
2012-04-05 06:35:57 51°13.634 2°56.016 2.2 20 7 101670 49
2012-04-05 06:36:02 51°13.634 2°56.015 2.5 317 7 101670 49
2012-04-05 06:36:07 51°13.635 2°56.013 2.7 22 7 101680 51
2012-04-05 06:36:12 51°13.635 2°56.009 2.2 235 7 101680 51
2012-04-05 06:36:17 51°13.636 2°56.004 3.6 24 7 101680 50
2012-04-05 06:36:22 51°13.637 2°55.999 1.3 246 7 101680 50
2012-04-05 06:36:27 51°13.638 2°55.992 2.2 20 7 101680 49
2012-04-05 06:36:32 51°13.639 2°55.985 1.5 241 7 101680 49
2012-04-05 06:36:37 51°13.64 2°55.977 0.9 22 7 101680 50
2012-04-05 06:36:42 51°13.641 2°55.968 2.7 34 7 101680 50
2012-04-05 06:36:47 51°13.643 2°55.959 3.6 20 7 101680 50
2012-04-05 06:36:52 51°13.645 2°55.95 3 238 7 101680 50
2012-04-05 06:36:57 51°13.647 2°55.941 2 20 7 101680 50
2012-04-05 06:37:02 51°13.649 2°55.932 2.2 250 7 101680 50
2012-04-05 06:37:07 51°13.651 2°55.923 1.6 256 7 101680 51
2012-04-05 06:37:12 51°13.653 2°55.913 2.3 255 7 101680 51
2012-04-05 06:37:17 51°13.655 2°55.904 2.1 257 7 101680 51
2012-04-05 06:37:22 51°13.658 2°55.894 3.1 263 7 101680 51
2012-04-05 06:37:27 51°13.66 2°55.885 2.9 21 7 101680 50
2012-04-05 06:37:32 51°13.663 2°55.875 5.5 243 7 101680 50
2012-04-05 06:37:37 51°13.666 2°55.865 4.8 21 7 101680 51
2012-04-05 06:37:42 51°13.67 2°55.856 5.9 254 7 101680 51
2012-04-05 06:37:47 51°13.674 2°55.846 4.2 254 7 101690 49
2012-04-05 06:37:52 51°13.678 2°55.836 1.9 265 7 101690 49
2012-04-05 06:37:57 51°13.682 2°55.827 1.5 265 7 101690 51
2012-04-05 06:38:02 51°13.686 2°55.818 1.8 259 7 101690 51
2012-04-05 06:38:07 51°13.691 2°55.809 3.3 255 7 101680 48
2012-04-05 06:38:12 51°13.696 2°55.8 2.4 34 7 101680 48
2012-04-05 06:38:17 51°13.701 2°55.791 3 22 7 101680 50
2012-04-05 06:38:22 51°13.706 2°55.782 3.3 266 7 101680 50
2012-04-05 06:38:27 51°13.711 2°55.774 3.3 266 7 101680 51
2012-04-05 06:38:32 51°13.716 2°55.766 2.6 266 7 101680 51
2012-04-05 06:38:37 51°13.721 2°55.757 3.6 262 7 101680 50
2012-04-05 06:38:42 51°13.726 2°55.749 3.4 269 7 101680 50
2012-04-05 06:38:47 51°13.731 2°55.74 4.7 270 7 101690 49
2012-04-05 06:38:52 51°13.737 2°55.731 3.4 269 7 101690 49
2012-04-05 06:38:57 51°13.742 2°55.722 5.3 266 7 101690 50
2012-04-05 06:39:02 51°13.747 2°55.714 4.6 265 7 101690 50
2012-04-05 06:39:07 51°13.753 2°55.706 5.6 266 7 101680 51
2012-04-05 06:39:12 51°13.759 2°55.698 5.6 269 7 101680 51
2012-04-05 06:39:17 51°13.765 2°55.69 4.9 267 7 101690 50
2012-04-05 06:39:22 51°13.77 2°55.683 4.3 269 7 101690 50
2012-04-05 06:39:27 51°13.776 2°55.675 4.1 268 7 101690 51
2012-04-05 06:39:32 51°13.783 2°55.668 4.1 263 7 101690 51
2012-04-05 06:39:37 51°13.789 2°55.661 3.7 260 7 101680 50
2012-04-05 06:39:42 51°13.795 2°55.654 4.6 263 7 101680 50
2012-04-05 06:39:47 51°13.802 2°55.648 3.8 265 6.9 101680 50
2012-04-05 06:39:52 51°13.809 2°55.643 5 41 6.9 101680 50
2012-04-05 06:39:57 51°13.816 2°55.638 2.6 263 6.9 101690 51
2012-04-05 06:40:02 51°13.823 2°55.633 2.5 39 6.9 101690 51
2012-04-05 06:40:07 51°13.83 2°55.629 3.2 20 6.9 101690 50
2012-04-05 06:40:12 51°13.837 2°55.625 2.7 34 6.9 101690 50
2012-04-05 06:40:17 51°13.844 2°55.622 4.7 22 6.9 101690 50
2012-04-05 06:40:22 51°13.85 2°55.619 2.9 31 6.9 101690 50
2012-04-05 06:40:27 51°13.857 2°55.616 3.2 21 6.9 101690 51
2012-04-05 06:40:32 51°13.864 2°55.613 6.4 34 6.9 101690 51
2012-04-05 06:40:37 51°13.87 2°55.611 8.3 22 6.9 101690 51
2012-04-05 06:40:42 51°13.877 2°55.609 8.4 36 6.9 101690 51
2012-04-05 06:40:47 51°13.883 2°55.607 6.8 22 6.9 101690 49
2012-04-05 06:40:52 51°13.89 2°55.605 5.3 31 6.9 101690 49
2012-04-05 06:40:57 51°13.896 2°55.604 4.4 25 6.9 101690 50
2012-04-05 06:41:02 51°13.901 2°55.604 4.5 35 6.9 101690 50
2012-04-05 06:41:07 51°13.907 2°55.603 4.9 27 6.9 101700 49
2012-04-05 06:41:12 51°13.913 2°55.603 6.3 31 6.9 101700 49
2012-04-05 06:41:17 51°13.918 2°55.603 7.3 26 6.9 101700 50
2012-04-05 06:41:22 51°13.923 2°55.604 7.3 32 6.9 101700 50
2012-04-05 06:41:27 51°13.928 2°55.604 7.7 21 6.9 101680 49
2012-04-05 06:41:32 51°13.933 2°55.605 5.6 37 6.9 101680 49
2012-04-05 06:41:37 51°13.938 2°55.606 5.7 25 6.9 101690 50
2012-04-05 06:41:42 51°13.942 2°55.608 5.6 32 6.9 101690 50
2012-04-05 06:41:47 51°13.946 2°55.61 5 25 6.9 101690 51
2012-04-05 06:41:52 51°13.95 2°55.613 5.4 30 6.9 101690 51
2012-04-05 06:41:57 51°13.954 2°55.615 6 18 6.9 101690 49
2012-04-05 06:42:02 51°13.958 2°55.618 5.4 30 6.9 101690 49
2012-04-05 06:42:07 51°13.962 2°55.621 4.9 20 6.9 101690 50
2012-04-05 06:42:12 51°13.965 2°55.624 5.3 33 6.9 101690 50
2012-04-05 06:42:17 51°13.968 2°55.627 4.7 20 6.8 101690 51
2012-04-05 06:42:22 51°13.971 2°55.63 4.9 31 6.8 101690 51
2012-04-05 06:42:27 51°13.974 2°55.633 4.6 27 6.8 101690 51
2012-04-05 06:42:32 51°13.976 2°55.636 4.6 29 6.8 101690 51
2012-04-05 06:42:37 51°13.978 2°55.639 2.3 26 6.8 101680 51
2012-04-05 06:42:42 51°13.98 2°55.64 4 31 6.8 101680 51
2012-04-05 06:42:47 51°13.981 2°55.641 5.1 19 6.8 101690 49
2012-04-05 06:42:52 51°13.981 2°55.64 5.2 37 6.8 101690 49
2012-04-05 06:42:57 51°13.981 2°55.639 6.2 25 6.8 101690 49
2012-04-05 06:43:02 51°13.982 2°55.637 5.8 39 6.8 101690 49
2012-04-05 06:43:07 51°13.982 2°55.634 6 26 6.8 101690 50
2012-04-05 06:43:12 51°13.982 2°55.629 4.8 32 6.8 101690 50
2012-04-05 06:43:17 51°13.983 2°55.625 4.8 24 6.9 101700 50
2012-04-05 06:43:22 51°13.984 2°55.619 3.1 39 6.9 101700 50
2012-04-05 06:43:27 51°13.985 2°55.614 3.6 32 6.9 101690 48
2012-04-05 06:43:32 51°13.988 2°55.607 3.5 29 6.9 101690 48
2012-04-05 06:43:37 51°13.991 2°55.6 3.8 16 6.9 101680 49
2012-04-05 06:43:42 51°13.994 2°55.592 3.8 31 6.9 101680 49
2012-04-05 06:43:47 51°13.998 2°55.584 3.3 16 6.9 101680 49
2012-04-05 06:43:52 51°14.003 2°55.575 4.8 36 6.9 101680 49
2012-04-05 06:43:57 51°14.008 2°55.565 4 33 6.9 101680 50
2012-04-05 06:44:02 51°14.015 2°55.556 2.9 359 6.9 101680 50
2012-04-05 06:44:07 51°14.021 2°55.545 2.9 7 6.9 101690 51
2012-04-05 06:44:12 51°14.028 2°55.536 3.9 -999 6.9 101690 51
2012-04-05 06:44:17 51°14.036 2°55.526 4.3 352 6.9 101680 50
2012-04-05 06:44:22 51°14.044 2°55.516 5.3 349 6.9 101680 50
2012-04-05 06:44:27 51°14.052 2°55.506 4 350 6.9 101690 50
2012-04-05 06:44:32 51°14.061 2°55.496 3.6 355 6.9 101690 50
2012-04-05 06:44:37 51°14.07 2°55.486 3.9 356 6.9 101680 50
2012-04-05 06:44:42 51°14.08 2°55.475 4.3 351 6.9 101680 50
2012-04-05 06:44:47 51°14.089 2°55.465 3.8 341 6.9 101680 50
2012-04-05 06:44:52 51°14.099 2°55.455 6.3 353 6.9 101680 50
2012-04-05 06:44:57 51°14.109 2°55.444 7.3 349 6.9 101680 51
2012-04-05 06:45:02 51°14.118 2°55.434 5.4 359 6.9 101680 51
2012-04-05 06:45:07 51°14.129 2°55.424 6 349 6.9 101680 50
2012-04-05 06:45:12 51°14.139 2°55.414 5.5 355 6.9 101680 50
2012-04-05 06:45:17 51°14.149 2°55.404 6.2 359 6.9 101680 49
2012-04-05 06:45:22 51°14.16 2°55.393 5.2 358 6.9 101680 49
2012-04-05 06:45:27 51°14.17 2°55.383 6 359 6.9 101680 49
2012-04-05 06:45:32 51°14.181 2°55.374 7.9 2 6.9 101680 49
2012-04-05 06:45:37 51°14.191 2°55.364 8.4 2 6.8 101680 51
2012-04-05 06:45:42 51°14.202 2°55.353 6.2 352 6.8 101680 51
2012-04-05 06:45:47 51°14.212 2°55.343 8 358 6.8 101680 50
2012-04-05 06:45:52 51°14.223 2°55.333 7 2 6.8 101680 50
2012-04-05 06:45:57 51°14.234 2°55.323 6.1 357 6.8 101680 49
2012-04-05 06:46:02 51°14.245 2°55.313 7.7 2 6.8 101680 49
2012-04-05 06:46:07 51°14.256 2°55.302 7.5 3 6.8 101680 49
2012-04-05 06:46:12 51°14.267 2°55.291 6.8 5 6.8 101680 49
2012-04-05 06:46:17 51°14.278 2°55.279 7.4 2 6.8 101680 49
2012-04-05 06:46:22 51°14.289 2°55.268 6.6 7 6.8 101680 49
2012-04-05 06:46:27 51°14.301 2°55.257 7.6 7 6.8 101680 50
2012-04-05 06:46:32 51°14.312 2°55.246 6.4 5 6.8 101680 50
2012-04-05 06:46:37 51°14.324 2°55.234 6.3 3 6.8 101670 51
2012-04-05 06:46:42 51°14.336 2°55.222 6.6 5 6.8 101670 51
2012-04-05 06:46:47 51°14.348 2°55.211 8.3 4 6.8 101670 50
2012-04-05 06:46:52 51°14.359 2°55.199 7.3 6 6.8 101670 50
2012-04-05 06:46:57 51°14.371 2°55.187 6.9 7 6.8 101670 50
2012-04-05 06:47:02 51°14.382 2°55.175 7.2 8 6.8 101670 50
2012-04-05 06:47:07 51°14.394 2°55.162 8 6 6.8 101680 51
2012-04-05 06:47:12 51°14.405 2°55.15 7 6 6.8 101680 51
2012-04-05 06:47:17 51°14.416 2°55.139 7.1 7 6.8 101670 51
2012-04-05 06:47:22 51°14.428 2°55.127 7.5 9 6.8 101670 51
2012-04-05 06:47:27 51°14.44 2°55.115 6.1 6 6.8 101680 51
2012-04-05 06:47:32 51°14.452 2°55.103 6.2 2 6.8 101680 51
2012-04-05 06:47:37 51°14.464 2°55.091 6.8 -999 6.8 101670 51
2012-04-05 06:47:42 51°14.476 2°55.079 6.4 3 6.8 101670 51
2012-04-05 06:47:47 51°14.488 2°55.066 6.7 360 6.8 101670 50
2012-04-05 06:47:52 51°14.5 2°55.052 7.4 1 6.8 101670 50
2012-04-05 06:47:57 51°14.512 2°55.038 8.8 3 6.8 101670 51
2012-04-05 06:48:02 51°14.523 2°55.024 7.9 5 6.8 101670 51
2012-04-05 06:48:07 51°14.535 2°55.007 7 2 6.8 101670 51
2012-04-05 06:48:12 51°14.546 2°54.99 6.6 5 6.8 101670 51
2012-04-05 06:48:17 51°14.557 2°54.973 7.6 5 6.8 101680 51
2012-04-05 06:48:22 51°14.569 2°54.956 7.9 2 6.8 101680 51
2012-04-05 06:48:27 51°14.58 2°54.938 7.5 4 6.8 101660 51
2012-04-05 06:48:32 51°14.592 2°54.921 8.7 7 6.8 101660 51
2012-04-05 06:48:37 51°14.604 2°54.903 7.9 6 6.8 101670 51
2012-04-05 06:48:41 51°14.613 2°54.889 7.3 3 6.8 101670 51
2012-04-05 06:48:47 51°14.627 2°54.867 7.2 7 6.8 101670 50
2012-04-05 06:48:52 51°14.64 2°54.85 8.8 7 6.8 101670 50
2012-04-05 06:48:57 51°14.652 2°54.832 8.9 3 6.8 101670 51
2012-04-05 06:49:01 51°14.661 2°54.818 9.1 3 6.8 101670 51
2012-04-05 06:49:06 51°14.674 2°54.801 8.9 2 6.8 101660 52
2012-04-05 06:49:12 51°14.689 2°54.78 12 359 6.8 101660 52
2012-04-05 06:49:17 51°14.702 2°54.763 10.6 2 6.8 101650 52
2012-04-05 06:49:21 51°14.712 2°54.75 12.8 4 6.8 101650 52
2012-04-05 06:49:26 51°14.724 2°54.733 13 1 6.8 101650 53
2012-04-05 06:49:32 51°14.74 2°54.713 9.6 4 6.8 101650 53
2012-04-05 06:49:37 51°14.753 2°54.696 8.6 3 6.8 101660 52
2012-04-05 06:49:42 51°14.766 2°54.68 9 3 6.8 101660 52
2012-04-05 06:49:46 51°14.777 2°54.667 10.1 2 6.8 101650 51
2012-04-05 06:49:52 51°14.792 2°54.648 8.7 2 6.8 101650 51
2012-04-05 06:49:57 51°14.805 2°54.632 8.8 6 6.8 101650 51
2012-04-05 06:50:02 51°14.819 2°54.617 9.4 7 6.8 101650 51
2012-04-05 06:50:06 51°14.829 2°54.606 10.9 2 6.8 101650 51
2012-04-05 06:50:12 51°14.845 2°54.589 10.4 1 6.8 101650 51
2012-04-05 06:50:17 51°14.858 2°54.575 9.6 4 6.8 101650 51
2012-04-05 06:50:22 51°14.871 2°54.56 9.1 4 6.8 101650 51
2012-04-05 06:50:26 51°14.881 2°54.547 10.9 3 6.8 101650 51
2012-04-05 06:50:32 51°14.896 2°54.528 9.1 4 6.8 101650 51
2012-04-05 06:50:37 51°14.909 2°54.512 10.9 2 6.8 101660 52
2012-04-05 06:50:41 51°14.919 2°54.499 8.7 3 6.8 101660 52
2012-04-05 06:50:46 51°14.931 2°54.483 11.4 4 6.8 101640 52
2012-04-05 06:50:52 51°14.947 2°54.464 8.4 1 6.8 101640 52
2012-04-05 06:50:57 51°14.96 2°54.449 8.6 2 6.8 101670 51
2012-04-05 06:51:01 51°14.97 2°54.437 10.2 -999 6.8 101670 51
2012-04-05 06:51:06 51°14.983 2°54.42 12.1 1 6.8 101660 51
2012-04-05 06:51:12 51°14.997 2°54.401 10.3 2 6.8 101660 51
2012-04-05 06:51:17 51°15.01 2°54.384 13 1 6.8 101660 52
2012-04-05 06:51:21 51°15.02 2°54.371 8.9 3 6.8 101660 52
2012-04-05 06:51:26 51°15.033 2°54.355 9.8 2 6.9 101650 51
2012-04-05 06:51:31 51°15.046 2°54.339 11.3 1 6.9 101650 51
2012-04-05 06:51:37 51°15.062 2°54.321 12.9 2 6.9 101630 52
2012-04-05 06:51:41 51°15.072 2°54.309 12.5 360 6.9 101630 52
2012-04-05 06:51:46 51°15.085 2°54.294 10.3 5 6.8 101650 51
2012-04-05 06:51:51 51°15.097 2°54.277 11.3 2 6.8 101650 51
2012-04-05 06:51:57 51°15.112 2°54.257 10.6 3 6.8 101640 52
2012-04-05 06:52:01 51°15.122 2°54.244 8.7 2 6.8 101640 52
2012-04-05 06:52:06 51°15.135 2°54.228 11.4 3 6.8 101650 52
2012-04-05 06:52:11 51°15.148 2°54.212 8.3 6 6.8 101650 52
2012-04-05 06:52:16 51°15.161 2°54.195 7.5 3 6.8 101650 51
2012-04-05 06:52:21 51°15.173 2°54.179 8.4 4 6.8 101650 51
2012-04-05 06:52:26 51°15.186 2°54.163 9.3 2 6.8 101650 51
2012-04-05 06:52:31 51°15.199 2°54.147 8.8 3 6.8 101650 51
2012-04-05 06:52:36 51°15.211 2°54.13 9.8 1 6.8 101650 52
2012-04-05 06:52:41 51°15.224 2°54.113 9 2 6.8 101650 52
2012-04-05 06:52:46 51°15.237 2°54.096 9.7 2 6.8 101650 51
2012-04-05 06:52:51 51°15.249 2°54.079 9.6 -999 6.8 101650 51
2012-04-05 06:52:56 51°15.262 2°54.064 9.1 4 6.8 101660 51
2012-04-05 06:53:01 51°15.276 2°54.048 8.4 2 6.8 101660 51
2012-04-05 06:53:06 51°15.288 2°54.032 8.1 3 6.8 101670 51
2012-04-05 06:53:11 51°15.301 2°54.015 7.5 6 6.8 101670 51
2012-04-05 06:53:16 51°15.314 2°53.998 6.6 359 6.8 101660 51
2012-04-05 06:53:21 51°15.327 2°53.982 7.6 3 6.8 101660 51
2012-04-05 06:53:26 51°15.34 2°53.966 7.1 1 6.8 101670 51
2012-04-05 06:53:31 51°15.353 2°53.95 8.7 1 6.8 101670 51
2012-04-05 06:53:36 51°15.366 2°53.934 8.4 4 6.8 101670 52
2012-04-05 06:53:41 51°15.379 2°53.918 7.8 3 6.8 101670 52
2012-04-05 06:53:46 51°15.392 2°53.902 8.7 -999 6.8 101660 53
2012-04-05 06:53:51 51°15.406 2°53.887 10.2 359 6.8 101660 53
2012-04-05 06:53:56 51°15.419 2°53.871 9.8 359 6.8 101660 53
2012-04-05 06:54:01 51°15.431 2°53.855 9.2 360 6.8 101660 53
2012-04-05 06:54:06 51°15.444 2°53.839 9 1 6.8 101660 51
2012-04-05 06:54:11 51°15.457 2°53.823 9.9 2 6.8 101660 51
2012-04-05 06:54:16 51°15.47 2°53.806 9.2 1 6.8 101660 52
2012-04-05 06:54:21 51°15.483 2°53.79 9.6 2 6.8 101660 52
2012-04-05 06:54:26 51°15.496 2°53.775 8.9 4 6.8 101660 52
2012-04-05 06:54:31 51°15.51 2°53.76 8.5 359 6.8 101660 52
2012-04-05 06:54:36 51°15.524 2°53.747 9.3 1 6.8 101670 50
2012-04-05 06:54:41 51°15.538 2°53.733 9.8 358 6.8 101670 50
2012-04-05 06:54:46 51°15.552 2°53.721 8.4 -999 6.8 101670 50
2012-04-05 06:54:51 51°15.566 2°53.708 9.7 1 6.8 101670 50
2012-04-05 06:54:56 51°15.58 2°53.695 9.1 359 6.8 101670 52
2012-04-05 06:55:01 51°15.594 2°53.681 11.8 358 6.8 101670 52
2012-04-05 06:55:06 51°15.608 2°53.67 12.2 358 6.8 101660 51
2012-04-05 06:55:11 51°15.623 2°53.658 9.9 -999 6.8 101660 51
2012-04-05 06:55:16 51°15.637 2°53.647 9.4 358 6.8 101670 52
2012-04-05 06:55:21 51°15.652 2°53.636 10.2 2 6.8 101670 52
2012-04-05 06:55:26 51°15.666 2°53.624 8 358 6.8 101670 51
2012-04-05 06:55:31 51°15.68 2°53.612 10.5 357 6.8 101670 51
2012-04-05 06:55:36 51°15.694 2°53.6 12.1 356 6.8 101670 51
2012-04-05 06:55:41 51°15.708 2°53.589 11 356 6.8 101670 51
2012-04-05 06:55:46 51°15.722 2°53.578 9.6 357 6.8 101660 52
2012-04-05 06:55:51 51°15.736 2°53.566 12 357 6.8 101660 52
2012-04-05 06:55:56 51°15.75 2°53.553 8.9 359 6.7 101670 51
2012-04-05 06:56:01 51°15.764 2°53.541 10.5 359 6.7 101670 51
2012-04-05 06:56:06 51°15.778 2°53.528 9.5 358 6.8 101650 52
2012-04-05 06:56:11 51°15.792 2°53.517 12.7 357 6.8 101650 52
2012-04-05 06:56:16 51°15.806 2°53.506 10.2 358 6.7 101670 51
2012-04-05 06:56:21 51°15.82 2°53.495 13.1 357 6.7 101670 51
2012-04-05 06:56:26 51°15.834 2°53.483 11.6 359 6.7 101670 51
2012-04-05 06:56:31 51°15.848 2°53.472 11.9 359 6.7 101670 51
2012-04-05 06:56:36 51°15.862 2°53.461 14.6 358 6.8 101650 52
2012-04-05 06:56:41 51°15.876 2°53.451 12.5 355 6.8 101650 52
2012-04-05 06:56:46 51°15.89 2°53.44 10.9 358 6.8 101650 51
2012-04-05 06:56:51 51°15.904 2°53.43 11.9 358 6.8 101650 51
2012-04-05 06:56:56 51°15.918 2°53.419 13.1 358 6.8 101660 51
2012-04-05 06:57:01 51°15.932 2°53.409 13.1 2 6.8 101660 51
2012-04-05 06:57:06 51°15.946 2°53.397 10.7 359 6.8 101640 51
2012-04-05 06:57:11 51°15.96 2°53.385 10.2 1 6.8 101640 51
2012-04-05 06:57:16 51°15.973 2°53.371 8.3 357 6.8 101670 52
2012-04-05 06:57:21 51°15.987 2°53.358 9.9 359 6.8 101670 52
2012-04-05 06:57:26 51°16.001 2°53.346 10.2 359 6.8 101650 52
2012-04-05 06:57:31 51°16.014 2°53.334 13.2 1 6.8 101650 52
2012-04-05 06:57:36 51°16.029 2°53.324 15.3 358 6.8 101660 52
2012-04-05 06:57:41 51°16.043 2°53.314 6.7 359 6.8 101660 52
2012-04-05 06:57:45 51°16.055 2°53.306 10.7 358 6.8 101670 52
2012-04-05 06:57:51 51°16.072 2°53.293 12.7 -999 6.8 101670 52
2012-04-05 06:57:56 51°16.087 2°53.283 14.4 360 6.8 101650 51
2012-04-05 06:58:01 51°16.101 2°53.273 13.5 358 6.8 101650 51
2012-04-05 06:58:05 51°16.112 2°53.264 6.7 357 6.7 101660 51
2012-04-05 06:58:11 51°16.13 2°53.252 6.2 358 6.7 101660 51
2012-04-05 06:58:16 51°16.144 2°53.241 6.5 358 6.7 101660 52
2012-04-05 06:58:21 51°16.159 2°53.231 6.4 355 6.7 101660 52
2012-04-05 06:58:25 51°16.17 2°53.222 10.8 355 6.8 101640 51
2012-04-05 06:58:30 51°16.185 2°53.212 9.5 355 6.8 101640 51
2012-04-05 06:58:36 51°16.202 2°53.2 10.6 354 6.7 101660 50
2012-04-05 06:58:41 51°16.217 2°53.192 13.8 354 6.7 101660 50
2012-04-05 06:58:45 51°16.229 2°53.186 10.3 355 6.7 101650 51
2012-04-05 06:58:50 51°16.243 2°53.177 14.7 356 6.7 101650 51
2012-04-05 06:58:55 51°16.258 2°53.167 9.1 358 6.8 101650 51
2012-04-05 06:59:01 51°16.275 2°53.154 9.5 358 6.8 101650 51
2012-04-05 06:59:05 51°16.286 2°53.144 9.4 355 6.7 101670 51
2012-04-05 06:59:10 51°16.3 2°53.131 15.1 356 6.7 101670 51
2012-04-05 06:59:15 51°16.314 2°53.12 11.1 357 6.7 101640 51
2012-04-05 06:59:21 51°16.331 2°53.105 15.3 359 6.7 101640 51
2012-04-05 06:59:25 51°16.342 2°53.095 12.1 358 6.7 101670 50
2012-04-05 06:59:30 51°16.356 2°53.083 13.5 358 6.7 101670 50
2012-04-05 06:59:35 51°16.37 2°53.072 9.1 353 6.7 101660 51
2012-04-05 06:59:41 51°16.388 2°53.059 9.4 354 6.7 101660 51
2012-04-05 06:59:45 51°16.399 2°53.051 11.8 355 6.7 101660 50
2012-04-05 06:59:50 51°16.413 2°53.041 9.1 355 6.7 101660 50
2012-04-05 06:59:55 51°16.428 2°53.031 11.7 356 6.7 101660 50
2012-04-05 07:00:01 51°16.445 2°53.019 9.8 356 6.7 101660 50
2012-04-05 07:00:05 51°16.456 2°53.011 10 354 6.7 101680 52
2012-04-05 07:00:10 51°16.47 2°53.001 12.6 355 6.7 101680 52
2012-04-05 07:00:16 51°16.488 2°52.989 10.1 356 6.7 101680 52
2012-04-05 07:00:21 51°16.501 2°52.979 10.2 358 6.7 101680 52
2012-04-05 07:00:25 51°16.512 2°52.972 12.3 355 6.7 101660 51
2012-04-05 07:00:30 51°16.526 2°52.961 12.2 357 6.7 101660 51
2012-04-05 07:00:35 51°16.54 2°52.951 12.3 356 6.7 101670 52
2012-04-05 07:00:41 51°16.557 2°52.939 11.8 356 6.7 101670 52
2012-04-05 07:00:45 51°16.569 2°52.931 9.6 358 6.7 101660 52
2012-04-05 07:00:50 51°16.583 2°52.921 9.6 359 6.7 101660 52
2012-04-05 07:00:55 51°16.597 2°52.912 9.2 358 6.7 101680 50
2012-04-05 07:01:01 51°16.614 2°52.901 10 4 6.7 101680 50
2012-04-05 07:01:05 51°16.626 2°52.893 8.7 359 6.7 101670 51
2012-04-05 07:01:10 51°16.64 2°52.883 9.1 357 6.7 101670 51
2012-04-05 07:01:15 51°16.654 2°52.873 9.4 357 6.7 101670 51
2012-04-05 07:01:21 51°16.672 2°52.86 7.5 360 6.7 101670 51
2012-04-05 07:01:25 51°16.683 2°52.852 8 4 6.7 101670 51
2012-04-05 07:01:30 51°16.697 2°52.842 12.5 357 6.7 101670 51
2012-04-05 07:01:35 51°16.712 2°52.832 9.9 -999 6.7 101670 51
2012-04-05 07:01:41 51°16.728 2°52.82 10.9 359 6.7 101670 51
2012-04-05 07:01:45 51°16.74 2°52.811 11 2 6.7 101670 52
2012-04-05 07:01:50 51°16.753 2°52.801 10.3 359 6.7 101670 52
2012-04-05 07:01:55 51°16.767 2°52.79 12.3 359 6.7 101670 52
2012-04-05 07:02:00 51°16.781 2°52.78 10.5 360 6.7 101670 52
2012-04-05 07:02:05 51°16.795 2°52.77 10 359 6.7 101680 51
2012-04-05 07:02:10 51°16.809 2°52.76 11.9 356 6.7 101680 51
2012-04-05 07:02:15 51°16.824 2°52.751 13.2 360 6.7 101680 51
2012-04-05 07:02:20 51°16.838 2°52.741 11.9 355 6.7 101680 51
2012-04-05 07:02:25 51°16.852 2°52.732 11.9 356 6.7 101680 52
2012-04-05 07:02:30 51°16.866 2°52.723 15 357 6.7 101680 52
2012-04-05 07:02:35 51°16.881 2°52.714 11.1 357 6.7 101690 52
2012-04-05 07:02:40 51°16.895 2°52.706 6.1 356 6.7 101690 52
2012-04-05 07:02:45 51°16.909 2°52.697 10.7 354 6.7 101690 51
2012-04-05 07:02:50 51°16.924 2°52.688 17 353 6.7 101690 51
2012-04-05 07:02:55 51°16.938 2°52.68 13.3 356 6.7 101660 51
2012-04-05 07:03:00 51°16.953 2°52.672 14.4 356 6.7 101660 51
2012-04-05 07:03:05 51°16.967 2°52.665 6.1 356 6.7 101680 52
2012-04-05 07:03:10 51°16.982 2°52.657 10.1 357 6.7 101680 52
2012-04-05 07:03:15 51°16.996 2°52.65 5.5 355 6.7 101670 52
2012-04-05 07:03:20 51°17.01 2°52.643 14.1 356 6.7 101670 52
2012-04-05 07:03:25 51°17.025 2°52.636 15.3 358 6.7 101690 51
2012-04-05 07:03:30 51°17.039 2°52.629 12.3 359 6.7 101690 51
2012-04-05 07:03:35 51°17.053 2°52.621 12.9 356 6.7 101690 51
2012-04-05 07:03:40 51°17.067 2°52.613 10.2 357 6.7 101690 51
2012-04-05 07:03:45 51°17.081 2°52.605 13.2 356 6.7 101700 51
2012-04-05 07:03:50 51°17.096 2°52.598 8.8 352 6.7 101700 51
2012-04-05 07:03:55 51°17.11 2°52.591 12.8 352 6.6 101670 51
2012-04-05 07:04:00 51°17.124 2°52.585 14.4 354 6.6 101670 51
2012-04-05 07:04:05 51°17.139 2°52.579 9.8 355 6.6 101680 51
2012-04-05 07:04:10 51°17.154 2°52.574 10.2 356 6.6 101680 51
2012-04-05 07:04:15 51°17.169 2°52.568 13.4 354 6.6 101690 52
2012-04-05 07:04:20 51°17.183 2°52.563 14.4 355 6.6 101690 52
2012-04-05 07:04:25 51°17.198 2°52.558 12.7 354 6.7 101680 52
2012-04-05 07:04:30 51°17.213 2°52.553 6.4 355 6.7 101680 52
2012-04-05 07:04:35 51°17.228 2°52.549 14.3 352 6.6 101680 51
2012-04-05 07:04:40 51°17.243 2°52.545 16 351 6.6 101680 51
2012-04-05 07:04:45 51°17.258 2°52.542 10.5 350 6.6 101690 50
2012-04-05 07:04:50 51°17.274 2°52.54 10.1 352 6.6 101690 50
2012-04-05 07:04:55 51°17.288 2°52.537 16.2 351 6.7 101690 51
2012-04-05 07:05:00 51°17.303 2°52.534 11.5 351 6.7 101690 51
2012-04-05 07:05:05 51°17.318 2°52.532 10.5 352 6.7 101680 52
2012-04-05 07:05:09 51°17.33 2°52.529 15.4 351 6.7 101680 52
2012-04-05 07:05:15 51°17.348 2°52.525 10 351 6.7 101680 52
2012-04-05 07:05:20 51°17.362 2°52.521 10.7 353 6.7 101680 52
2012-04-05 07:05:25 51°17.377 2°52.518 6 352 6.6 101690 51
2012-04-05 07:05:29 51°17.389 2°52.515 16 350 6.6 101690 51
2012-04-05 07:05:35 51°17.406 2°52.511 6.3 352 6.6 101680 52
2012-04-05 07:05:40 51°17.421 2°52.508 10.9 356 6.6 101680 52
2012-04-05 07:05:45 51°17.436 2°52.504 18.8 355 6.6 101680 50
2012-04-05 07:05:49 51°17.448 2°52.502 14.9 353 6.6 101680 50
2012-04-05 07:05:54 51°17.463 2°52.5 14.3 354 6.6 101690 50
2012-04-05 07:06:00 51°17.481 2°52.498 6.3 356 6.6 101690 50
2012-04-05 07:06:05 51°17.496 2°52.498 6.3 356 6.6 101680 52
2012-04-05 07:06:09 51°17.508 2°52.499 12.9 352 6.6 101680 52
2012-04-05 07:06:15 51°17.525 2°52.498 12 352 6.6 101690 52
2012-04-05 07:06:20 51°17.54 2°52.499 10.6 352 6.6 101690 52
2012-04-05 07:06:25 51°17.555 2°52.499 9.9 351 6.6 101680 52
2012-04-05 07:06:29 51°17.567 2°52.5 6.6 349 6.6 101680 52
2012-04-05 07:06:34 51°17.581 2°52.501 18.8 350 6.6 101680 52
2012-04-05 07:06:40 51°17.599 2°52.502 10.9 350 6.6 101680 52
2012-04-05 07:06:45 51°17.614 2°52.503 11.3 351 6.6 101680 51
2012-04-05 07:06:49 51°17.625 2°52.503 6.9 352 6.6 101680 51
2012-04-05 07:06:54 51°17.64 2°52.505 12.5 352 6.6 101690 53
2012-04-05 07:07:00 51°17.657 2°52.506 6.3 352 6.6 101690 53
2012-04-05 07:07:05 51°17.672 2°52.506 17.9 279 6.6 101670 52
2012-04-05 07:07:09 51°17.684 2°52.506 6.7 352 6.6 101670 52
2012-04-05 07:07:15 51°17.701 2°52.507 14.9 350 6.6 101660 51
2012-04-05 07:07:20 51°17.716 2°52.509 15.7 352 6.6 101660 51
2012-04-05 07:07:25 51°17.731 2°52.511 14.7 350 6.6 101680 50
2012-04-05 07:07:29 51°17.742 2°52.513 13.1 348 6.6 101680 50
2012-04-05 07:07:34 51°17.756 2°52.516 6.8 349 6.6 101670 51
2012-04-05 07:07:40 51°17.773 2°52.518 7.1 350 6.6 101670 51
2012-04-05 07:07:45 51°17.787 2°52.52 7.1 350 6.6 101680 51
2012-04-05 07:07:49 51°17.799 2°52.521 7 349 6.6 101680 51
2012-04-05 07:07:54 51°17.813 2°52.523 6.8 351 6.6 101660 52
2012-04-05 07:08:00 51°17.831 2°52.526 15.7 351 6.6 101660 52
2012-04-05 07:08:05 51°17.844 2°52.527 16.1 279 6.5 101680 51
2012-04-05 07:08:09 51°17.856 2°52.528 10.7 353 6.5 101680 51
2012-04-05 07:08:14 51°17.87 2°52.529 11.4 351 6.6 101670 51
2012-04-05 07:08:20 51°17.888 2°52.531 14.9 350 6.6 101670 51
2012-04-05 07:08:25 51°17.902 2°52.533 10.7 350 6.5 101670 51
2012-04-05 07:08:29 51°17.914 2°52.533 10.5 348 6.5 101670 51
2012-04-05 07:08:34 51°17.928 2°52.536 14.8 283 6.6 101680 52
2012-04-05 07:08:39 51°17.943 2°52.539 14.9 349 6.6 101680 52
2012-04-05 07:08:45 51°17.96 2°52.543 15.2 284 6.6 101680 52
2012-04-05 07:08:49 51°17.971 2°52.546 7.4 346 6.6 101680 52
2012-04-05 07:08:54 51°17.986 2°52.55 19.8 282 6.6 101680 52
2012-04-05 07:08:59 51°18 2°52.554 11.8 344 6.6 101680 52
2012-04-05 07:09:04 51°18.014 2°52.56 15.2 284 6.6 101670 52
2012-04-05 07:09:09 51°18.028 2°52.565 18.5 344 6.6 101670 52
2012-04-05 07:09:14 51°18.042 2°52.57 17.7 344 6.6 101680 52
2012-04-05 07:09:19 51°18.056 2°52.576 18.7 342 6.6 101680 52
2012-04-05 07:09:24 51°18.07 2°52.583 17.1 283 6.6 101680 53
2012-04-05 07:09:29 51°18.083 2°52.589 16.8 341 6.6 101680 53
2012-04-05 07:09:34 51°18.097 2°52.596 21 282 6.6 101680 53
2012-04-05 07:09:39 51°18.111 2°52.603 19 341 6.6 101680 53
2012-04-05 07:09:44 51°18.124 2°52.611 9.6 285 6.5 101680 52
2012-04-05 07:09:49 51°18.137 2°52.618 17.3 341 6.5 101680 52
2012-04-05 07:09:54 51°18.15 2°52.627 12.5 285 6.6 101670 52
2012-04-05 07:09:59 51°18.163 2°52.636 17.3 342 6.6 101670 52
2012-04-05 07:10:04 51°18.176 2°52.645 12.6 282 6.5 101660 51
2012-04-05 07:10:09 51°18.189 2°52.656 15.6 338 6.5 101660 51
2012-04-05 07:10:14 51°18.202 2°52.666 15.7 338 6.6 101690 53
2012-04-05 07:10:19 51°18.215 2°52.678 18.8 336 6.6 101690 53
2012-04-05 07:10:24 51°18.227 2°52.69 14.8 283 6.5 101680 52
2012-04-05 07:10:29 51°18.239 2°52.703 13.9 336 6.5 101680 52
2012-04-05 07:10:34 51°18.25 2°52.716 21.8 280 6.5 101670 52
2012-04-05 07:10:39 51°18.262 2°52.73 16.1 336 6.5 101670 52
2012-04-05 07:10:44 51°18.272 2°52.744 13.5 283 6.5 101670 52
2012-04-05 07:10:49 51°18.283 2°52.76 13 337 6.5 101670 52
2012-04-05 07:10:54 51°18.294 2°52.775 6.1 283 6.5 101690 52
2012-04-05 07:10:59 51°18.304 2°52.791 8.1 335 6.5 101690 52
2012-04-05 07:11:04 51°18.315 2°52.806 16.1 281 6.5 101690 52
2012-04-05 07:11:09 51°18.325 2°52.823 7.1 335 6.5 101690 52
2012-04-05 07:11:14 51°18.335 2°52.839 19.7 336 6.5 101680 52
2012-04-05 07:11:19 51°18.345 2°52.855 17.4 334 6.5 101680 52
2012-04-05 07:11:24 51°18.355 2°52.871 14.3 283 6.5 101680 52
2012-04-05 07:11:29 51°18.365 2°52.887 18.7 333 6.5 101680 52
2012-04-05 07:11:34 51°18.375 2°52.904 18.1 285 6.5 101670 52
2012-04-05 07:11:39 51°18.384 2°52.922 16.3 332 6.5 101670 52
2012-04-05 07:11:44 51°18.393 2°52.939 7.8 280 6.5 101680 52
2012-04-05 07:11:49 51°18.402 2°52.956 15.7 333 6.5 101680 52
2012-04-05 07:11:54 51°18.411 2°52.974 14.1 283 6.5 101690 51
2012-04-05 07:11:59 51°18.42 2°52.992 7.7 333 6.5 101690 51
2012-04-05 07:12:04 51°18.428 2°53.01 15.8 283 6.5 101680 51
2012-04-05 07:12:09 51°18.437 2°53.029 14.7 333 6.5 101680 51
2012-04-05 07:12:14 51°18.446 2°53.047 14.2 330 6.4 101680 51
2012-04-05 07:12:19 51°18.454 2°53.066 13.6 331 6.4 101680 51
2012-04-05 07:12:24 51°18.463 2°53.084 13.9 284 6.4 101700 51
2012-04-05 07:12:29 51°18.473 2°53.103 18.7 331 6.4 101700 51
2012-04-05 07:12:33 51°18.479 2°53.118 16.6 280 6.4 101700 52
2012-04-05 07:12:39 51°18.489 2°53.14 15.1 328 6.4 101700 52
2012-04-05 07:12:44 51°18.498 2°53.159 8.1 281 6.4 101700 50
2012-04-05 07:12:49 51°18.507 2°53.178 13.5 330 6.4 101700 50
2012-04-05 07:12:53 51°18.513 2°53.193 20.2 280 6.4 101700 51
2012-04-05 07:12:59 51°18.523 2°53.216 16.1 330 6.4 101700 51
2012-04-05 07:13:04 51°18.532 2°53.234 16.6 283 6.4 101700 52
2012-04-05 07:13:09 51°18.54 2°53.254 12.7 331 6.4 101700 52
2012-04-05 07:13:14 51°18.55 2°53.272 13.5 329 6.4 101700 52
2012-04-05 07:13:19 51°18.558 2°53.29 18.3 331 6.4 101700 52
2012-04-05 07:13:24 51°18.567 2°53.309 16.9 281 6.4 101700 51
2012-04-05 07:13:29 51°18.576 2°53.327 18.1 330 6.4 101700 51
2012-04-05 07:13:33 51°18.584 2°53.341 16.7 284 6.5 101690 52
2012-04-05 07:13:39 51°18.595 2°53.362 16.8 331 6.5 101690 52
2012-04-05 07:13:44 51°18.604 2°53.379 16.1 284 6.4 101700 52
2012-04-05 07:13:49 51°18.614 2°53.398 14.4 330 6.4 101700 52
2012-04-05 07:13:53 51°18.621 2°53.411 7.7 282 6.4 101700 52
2012-04-05 07:13:59 51°18.633 2°53.432 18.9 331 6.4 101700 52
2012-04-05 07:14:04 51°18.642 2°53.449 11 280 6.4 101700 51
2012-04-05 07:14:09 51°18.652 2°53.466 13.7 331 6.4 101700 51
2012-04-05 07:14:14 51°18.662 2°53.482 13.6 332 6.4 101710 51
2012-04-05 07:14:19 51°18.672 2°53.499 16.3 331 6.4 101710 51
2012-04-05 07:14:24 51°18.682 2°53.516 16.8 281 6.4 101700 51
2012-04-05 07:14:29 51°18.692 2°53.533 17.5 331 6.4 101700 51
2012-04-05 07:14:33 51°18.699 2°53.547 12.1 287 6.4 101710 50
2012-04-05 07:14:39 51°18.711 2°53.568 11.1 330 6.4 101710 50
2012-04-05 07:14:44 51°18.72 2°53.586 14.8 285 6.4 101700 50
2012-04-05 07:14:49 51°18.729 2°53.602 15.1 331 6.4 101700 50
2012-04-05 07:14:53 51°18.736 2°53.616 13.7 279 6.4 101710 52
2012-04-05 07:14:59 51°18.747 2°53.635 12.2 335 6.4 101710 52
2012-04-05 07:15:04 51°18.757 2°53.652 13.2 284 6.4 101710 52
2012-04-05 07:15:09 51°18.767 2°53.668 11.6 331 6.4 101710 52
2012-04-05 07:15:13 51°18.775 2°53.681 13 333 6.4 101690 51
2012-04-05 07:15:19 51°18.787 2°53.702 15.7 332 6.4 101690 51
2012-04-05 07:15:24 51°18.796 2°53.719 18.7 282 6.4 101710 50
2012-04-05 07:15:29 51°18.806 2°53.735 19 333 6.4 101710 50
2012-04-05 07:15:33 51°18.813 2°53.749 12.7 282 6.4 101710 51
2012-04-05 07:15:39 51°18.825 2°53.77 13.2 332 6.4 101710 51
2012-04-05 07:15:44 51°18.835 2°53.787 18.3 282 6.4 101700 51
2012-04-05 07:15:49 51°18.845 2°53.804 7.7 332 6.4 101700 51
2012-04-05 07:15:53 51°18.853 2°53.817 12.1 281 6.4 101700 51
2012-04-05 07:15:59 51°18.864 2°53.838 17.4 333 6.4 101700 51
2012-04-05 07:16:04 51°18.874 2°53.855 15.5 281 6.3 101700 51
2012-04-05 07:16:09 51°18.884 2°53.872 14.7 334 6.3 101700 51
2012-04-05 07:16:13 51°18.891 2°53.886 14.3 333 6.3 101710 51
2012-04-05 07:16:19 51°18.903 2°53.907 13.6 335 6.3 101710 51
2012-04-05 07:16:24 51°18.913 2°53.925 14.3 282 6.3 101690 50
2012-04-05 07:16:29 51°18.923 2°53.942 11.2 332 6.3 101690 50
2012-04-05 07:16:33 51°18.93 2°53.957 16.9 283 6.3 101700 51
2012-04-05 07:16:39 51°18.941 2°53.977 11.4 334 6.3 101700 51
2012-04-05 07:16:44 51°18.951 2°53.995 11.3 282 6.3 101710 51
2012-04-05 07:16:49 51°18.961 2°54.013 13.1 332 6.3 101710 51
2012-04-05 07:16:53 51°18.969 2°54.027 14.3 281 6.3 101710 51
2012-04-05 07:16:59 51°18.98 2°54.048 15.9 330 6.3 101710 51
2012-04-05 07:17:04 51°18.99 2°54.065 11.1 282 6.3 101710 51
2012-04-05 07:17:09 51°19 2°54.082 16.5 330 6.3 101710 51
2012-04-05 07:17:13 51°19.009 2°54.096 11.8 332 6.3 101710 51
2012-04-05 07:17:19 51°19.021 2°54.115 14.4 333 6.3 101710 51
2012-04-05 07:17:24 51°19.031 2°54.132 15.2 284 6.3 101700 52
2012-04-05 07:17:29 51°19.041 2°54.15 16 332 6.3 101700 52
2012-04-05 07:17:33 51°19.05 2°54.163 12.1 277 6.3 101710 52
2012-04-05 07:17:38 51°19.06 2°54.18 15.5 336 6.3 101710 52
2012-04-05 07:17:44 51°19.073 2°54.2 14 282 6.3 101700 51
2012-04-05 07:17:49 51°19.083 2°54.216 15.2 335 6.3 101700 51
2012-04-05 07:17:53 51°19.091 2°54.228 16.2 283 6.3 101710 51
2012-04-05 07:17:58 51°19.102 2°54.245 6.9 337 6.3 101710 51
2012-04-05 07:18:04 51°19.114 2°54.264 13.5 278 6.3 101710 50
2012-04-05 07:18:09 51°19.124 2°54.281 12 335 6.3 101710 50
2012-04-05 07:18:13 51°19.132 2°54.294 11.6 335 6.3 101710 52
2012-04-05 07:18:19 51°19.143 2°54.316 10.9 335 6.3 101710 52
2012-04-05 07:18:24 51°19.152 2°54.335 14.5 284 6.3 101710 51
2012-04-05 07:18:29 51°19.161 2°54.353 11.4 335 6.3 101710 51
2012-04-05 07:18:33 51°19.168 2°54.368 11 283 6.3 101700 52
2012-04-05 07:18:39 51°19.179 2°54.39 12 337 6.3 101700 52
2012-04-05 07:18:44 51°19.187 2°54.409 11.6 284 6.3 101690 51
2012-04-05 07:18:49 51°19.196 2°54.428 11.9 332 6.3 101690 51
2012-04-05 07:18:53 51°19.202 2°54.443 13.4 280 6.3 101690 51
2012-04-05 07:18:59 51°19.212 2°54.466 13.4 331 6.3 101690 51
2012-04-05 07:19:04 51°19.22 2°54.485 13.8 283 6.3 101690 51
2012-04-05 07:19:09 51°19.229 2°54.503 13.2 331 6.3 101690 51
2012-04-05 07:19:13 51°19.235 2°54.518 17.8 332 6.3 101700 52
2012-04-05 07:19:19 51°19.246 2°54.54 13.7 333 6.3 101700 52
2012-04-05 07:19:24 51°19.255 2°54.559 13.6 282 6.3 101710 52
2012-04-05 07:19:29 51°19.264 2°54.577 15.9 334 6.3 101710 52
2012-04-05 07:19:33 51°19.271 2°54.591 16.1 285 6.4 101700 52
2012-04-05 07:19:39 51°19.281 2°54.614 15.4 335 6.4 101700 52
2012-04-05 07:19:44 51°19.29 2°54.633 17.9 285 6.3 101710 52
2012-04-05 07:19:49 51°19.299 2°54.65 15.8 337 6.3 101710 52
2012-04-05 07:19:53 51°19.306 2°54.665 14 281 6.4 101710 52
2012-04-05 07:19:58 51°19.314 2°54.683 13.9 336 6.4 101710 52
2012-04-05 07:20:04 51°19.324 2°54.705 14.1 281 6.4 101700 52
2012-04-05 07:20:09 51°19.333 2°54.723 11.9 338 6.4 101700 52
2012-04-05 07:20:13 51°19.34 2°54.737 13 339 6.3 101710 51
2012-04-05 07:20:18 51°19.348 2°54.755 18.6 341 6.3 101710 51
2012-04-05 07:20:24 51°19.359 2°54.776 11.7 283 6.3 101700 52
2012-04-05 07:20:29 51°19.368 2°54.794 15.7 342 6.3 101700 52
2012-04-05 07:20:33 51°19.375 2°54.808 16.7 285 6.3 101690 51
2012-04-05 07:20:39 51°19.386 2°54.83 10 342 6.3 101690 51
2012-04-05 07:20:44 51°19.395 2°54.848 10.1 282 6.3 101680 50
2012-04-05 07:20:49 51°19.404 2°54.866 11.6 340 6.3 101680 50
2012-04-05 07:20:53 51°19.411 2°54.88 14.7 286 6.3 101690 50
2012-04-05 07:20:59 51°19.422 2°54.902 15.5 334 6.3 101690 50
2012-04-05 07:21:04 51°19.432 2°54.92 12.4 279 6.3 101690 51
2012-04-05 07:21:09 51°19.44 2°54.937 11.6 333 6.3 101690 51
2012-04-05 07:21:13 51°19.448 2°54.951 15.2 335 6.3 101710 51
2012-04-05 07:21:19 51°19.458 2°54.972 10.8 335 6.3 101710 51
2012-04-05 07:21:24 51°19.467 2°54.989 11.4 285 6.3 101720 51
2012-04-05 07:21:29 51°19.476 2°55.007 12.1 332 6.3 101720 51
2012-04-05 07:21:33 51°19.483 2°55.02 12.5 282 6.3 101730 51
2012-04-05 07:21:39 51°19.494 2°55.041 16.1 332 6.3 101730 51
2012-04-05 07:21:44 51°19.502 2°55.059 17 286 6.3 101690 52
2012-04-05 07:21:49 51°19.511 2°55.077 17.6 333 6.3 101690 52
2012-04-05 07:21:53 51°19.518 2°55.092 7.1 281 6.3 101710 51
2012-04-05 07:21:58 51°19.527 2°55.109 12 333 6.3 101710 51
2012-04-05 07:22:04 51°19.537 2°55.131 15.9 286 6.3 101710 52
2012-04-05 07:22:09 51°19.546 2°55.15 15 331 6.3 101710 52
2012-04-05 07:22:13 51°19.553 2°55.163 12.2 333 6.3 101720 51
2012-04-05 07:22:18 51°19.562 2°55.181 15.7 335 6.3 101720 51
2012-04-05 07:22:24 51°19.573 2°55.201 10.9 281 6.3 101700 52
2012-04-05 07:22:29 51°19.582 2°55.219 10.6 335 6.3 101700 52
2012-04-05 07:22:33 51°19.589 2°55.233 12.2 278 6.3 101720 51
2012-04-05 07:22:39 51°19.599 2°55.254 15.6 335 6.3 101720 51
2012-04-05 07:22:44 51°19.609 2°55.271 11.5 282 6.2 101720 51
2012-04-05 07:22:49 51°19.618 2°55.288 15.1 336 6.2 101720 51
2012-04-05 07:22:53 51°19.626 2°55.301 14.2 284 6.2 101720 51
2012-04-05 07:22:59 51°19.636 2°55.322 15.5 335 6.2 101720 51
2012-04-05 07:23:04 51°19.646 2°55.339 13.5 286 6.2 101730 51
2012-04-05 07:23:09 51°19.655 2°55.356 13.4 337 6.2 101730 51
2012-04-05 07:23:13 51°19.662 2°55.37 14.6 337 6.2 101730 51
2012-04-05 07:23:19 51°19.673 2°55.392 18.2 335 6.2 101730 51
2012-04-05 07:23:24 51°19.683 2°55.408 12.3 280 6.2 101700 50
2012-04-05 07:23:29 51°19.692 2°55.425 13.5 334 6.2 101700 50
2012-04-05 07:23:33 51°19.7 2°55.439 11.9 286 6.2 101730 51
2012-04-05 07:23:39 51°19.71 2°55.46 8 334 6.2 101730 51
2012-04-05 07:23:44 51°19.719 2°55.478 15.1 281 6.2 101730 52
2012-04-05 07:23:49 51°19.728 2°55.495 12.3 336 6.2 101730 52
2012-04-05 07:23:53 51°19.735 2°55.509 7.7 280 6.2 101700 51
2012-04-05 07:23:59 51°19.745 2°55.53 16.2 334 6.2 101700 51
2012-04-05 07:24:04 51°19.754 2°55.548 16.9 283 6.2 101720 51
2012-04-05 07:24:09 51°19.763 2°55.565 14.5 333 6.2 101720 51
2012-04-05 07:24:13 51°19.77 2°55.579 18.5 335 6.2 101720 51
2012-04-05 07:24:18 51°19.779 2°55.596 16.6 331 6.2 101720 51
2012-04-05 07:24:24 51°19.789 2°55.618 15.6 284 6.2 101710 51
2012-04-05 07:24:29 51°19.798 2°55.636 13.5 334 6.2 101710 51
2012-04-05 07:24:33 51°19.805 2°55.65 16 286 6.2 101720 51
2012-04-05 07:24:38 51°19.814 2°55.669 16.1 334 6.2 101720 51
2012-04-05 07:24:44 51°19.824 2°55.691 11.9 287 6.2 101720 52
2012-04-05 07:24:49 51°19.833 2°55.71 12.8 334 6.2 101720 52
2012-04-05 07:24:53 51°19.84 2°55.725 16.6 284 6.2 101710 51
2012-04-05 07:24:59 51°19.85 2°55.747 14.2 336 6.2 101710 51
2012-04-05 07:25:04 51°19.858 2°55.766 14.1 280 6.2 101720 51
2012-04-05 07:25:09 51°19.866 2°55.785 10.6 331 6.2 101720 51
2012-04-05 07:25:13 51°19.873 2°55.799 13.7 333 6.2 101730 51
2012-04-05 07:25:19 51°19.883 2°55.822 14.8 332 6.2 101730 51
2012-04-05 07:25:24 51°19.892 2°55.84 12.1 284 6.2 101720 51
2012-04-05 07:25:29 51°19.901 2°55.858 12.1 334 6.2 101720 51
2012-04-05 07:25:33 51°19.908 2°55.872 12 283 6.2 101740 51
2012-04-05 07:25:39 51°19.919 2°55.895 13.8 333 6.2 101740 51
2012-04-05 07:25:44 51°19.928 2°55.912 10.9 278 6.2 101730 51
2012-04-05 07:25:49 51°19.937 2°55.93 14.2 337 6.2 101730 51
2012-04-05 07:25:53 51°19.944 2°55.945 16.7 283 6.2 101720 51
2012-04-05 07:25:59 51°19.955 2°55.966 10.9 335 6.2 101720 51
2012-04-05 07:26:04 51°19.965 2°55.984 14.9 281 6.2 101730 50
2012-04-05 07:26:09 51°19.974 2°56.002 11.1 334 6.2 101730 50
2012-04-05 07:26:13 51°19.981 2°56.017 12.7 336 6.2 101730 51
2012-04-05 07:26:19 51°19.993 2°56.038 13.7 336 6.2 101730 51
2012-04-05 07:26:24 51°20.002 2°56.055 11.1 281 6.2 101740 51
2012-04-05 07:26:29 51°20.012 2°56.073 14.2 335 6.2 101740 51
2012-04-05 07:26:33 51°20.019 2°56.087 12.8 278 6.2 101730 50
2012-04-05 07:26:39 51°20.031 2°56.108 11.2 332 6.2 101730 50
2012-04-05 07:26:44 51°20.04 2°56.126 13.2 282 6.2 101720 51
2012-04-05 07:26:49 51°20.05 2°56.143 11.7 336 6.2 101720 51
2012-04-05 07:26:53 51°20.056 2°56.159 10.3 280 6.2 101720 51
2012-04-05 07:26:58 51°20.066 2°56.177 11 332 6.2 101720 51
2012-04-05 07:27:03 51°20.074 2°56.196 14 279 6.2 101730 50
2012-04-05 07:27:09 51°20.085 2°56.219 11.9 331 6.2 101730 50
2012-04-05 07:27:13 51°20.091 2°56.235 10.6 331 6.2 101730 51
2012-04-05 07:27:19 51°20.101 2°56.258 11.4 331 6.2 101730 51
2012-04-05 07:27:24 51°20.109 2°56.277 13.3 284 6.2 101730 51
2012-04-05 07:27:29 51°20.117 2°56.297 13.9 331 6.2 101730 51
2012-04-05 07:27:33 51°20.123 2°56.313 12.7 282 6.2 101730 51
2012-04-05 07:27:39 51°20.132 2°56.337 13.7 328 6.2 101730 51
2012-04-05 07:27:44 51°20.14 2°56.357 13.4 285 6.2 101720 52
2012-04-05 07:27:49 51°20.148 2°56.376 14.4 327 6.2 101720 52
2012-04-05 07:27:53 51°20.154 2°56.392 16.1 285 6.2 101730 52
2012-04-05 07:27:59 51°20.164 2°56.416 13.1 327 6.2 101730 52
2012-04-05 07:28:04 51°20.171 2°56.436 16.6 285 6.2 101730 51
2012-04-05 07:28:09 51°20.179 2°56.456 12.7 327 6.2 101730 51
2012-04-05 07:28:13 51°20.185 2°56.472 12.7 327 6.2 101730 52
2012-04-05 07:28:19 51°20.194 2°56.496 16.4 329 6.2 101730 52
2012-04-05 07:28:24 51°20.202 2°56.516 12 285 6.2 101720 51
2012-04-05 07:28:29 51°20.209 2°56.536 15.5 330 6.2 101720 51
2012-04-05 07:28:33 51°20.216 2°56.552 15 283 6.2 101730 51
2012-04-05 07:28:39 51°20.226 2°56.575 12.4 332 6.2 101730 51
2012-04-05 07:28:44 51°20.234 2°56.595 14.5 287 6.2 101720 50
2012-04-05 07:28:49 51°20.243 2°56.614 15 335 6.2 101720 50
2012-04-05 07:28:53 51°20.249 2°56.63 15.3 283 6.2 101710 51
2012-04-05 07:28:58 51°20.258 2°56.649 17.3 335 6.2 101710 51
2012-04-05 07:29:04 51°20.268 2°56.672 10.6 283 6.2 101720 51
2012-04-05 07:29:09 51°20.276 2°56.692 12.8 329 6.2 101720 51
2012-04-05 07:29:13 51°20.283 2°56.707 13.8 332 6.2 101710 52
2012-04-05 07:29:18 51°20.292 2°56.727 14.7 331 6.2 101710 52
2012-04-05 07:29:24 51°20.302 2°56.751 10.9 283 6.2 101720 52
2012-04-05 07:29:29 51°20.31 2°56.771 11.9 332 6.2 101720 52
2012-04-05 07:29:33 51°20.317 2°56.787 16.9 280 6.2 101720 52
2012-04-05 07:29:39 51°20.326 2°56.811 16.6 330 6.2 101720 52
2012-04-05 07:29:44 51°20.335 2°56.83 11.2 284 6.2 101700 52
2012-04-05 07:29:49 51°20.343 2°56.85 11.7 331 6.2 101700 52
2012-04-05 07:29:53 51°20.35 2°56.867 12.4 282 6.2 101730 52
2012-04-05 07:29:59 51°20.36 2°56.89 12.9 330 6.2 101730 52
2012-04-05 07:30:04 51°20.368 2°56.91 14.7 285 6.2 101720 52
2012-04-05 07:30:09 51°20.377 2°56.93 14.4 331 6.2 101720 52
2012-04-05 07:30:13 51°20.383 2°56.946 14.9 331 6.2 101710 52
2012-04-05 07:30:19 51°20.394 2°56.967 16.2 331 6.2 101710 52
2012-04-05 07:30:24 51°20.403 2°56.986 16.3 285 6.2 101720 52
2012-04-05 07:30:29 51°20.412 2°57.005 14.2 330 6.2 101720 52
2012-04-05 07:30:33 51°20.418 2°57.021 17.1 285 6.2 101720 51
2012-04-05 07:30:39 51°20.429 2°57.043 16.4 331 6.2 101720 51
2012-04-05 07:30:44 51°20.437 2°57.061 13.2 280 6.2 101720 51
2012-04-05 07:30:49 51°20.446 2°57.08 13.1 332 6.2 101720 51
2012-04-05 07:30:53 51°20.453 2°57.095 13.8 285 6.2 101710 52
2012-04-05 07:30:59 51°20.464 2°57.117 13.1 330 6.2 101710 52
2012-04-05 07:31:04 51°20.472 2°57.137 15.6 283 6.2 101730 51
2012-04-05 07:31:09 51°20.481 2°57.156 14.3 332 6.2 101730 51
2012-04-05 07:31:13 51°20.488 2°57.171 13.2 332 6.2 101710 52
2012-04-05 07:31:18 51°20.496 2°57.191 12.5 333 6.2 101710 52
2012-04-05 07:31:24 51°20.506 2°57.213 15.6 286 6.2 101720 51
2012-04-05 07:31:29 51°20.515 2°57.232 13.3 333 6.2 101720 51
2012-04-05 07:31:33 51°20.522 2°57.247 13.6 285 6.2 101720 52
2012-04-05 07:31:39 51°20.533 2°57.27 11.4 333 6.2 101720 52
2012-04-05 07:31:44 51°20.542 2°57.288 11.8 284 6.2 101710 51
2012-04-05 07:31:49 51°20.551 2°57.307 11.8 329 6.2 101710 51
2012-04-05 07:31:53 51°20.558 2°57.322 14.6 283 6.2 101710 51
2012-04-05 07:31:59 51°20.568 2°57.345 12.9 329 6.2 101710 51
2012-04-05 07:32:04 51°20.578 2°57.363 19.1 279 6.2 101730 51
2012-04-05 07:32:09 51°20.586 2°57.383 15.6 331 6.2 101730 51
2012-04-05 07:32:13 51°20.594 2°57.397 14.2 331 6.2 101730 52
2012-04-05 07:32:19 51°20.604 2°57.42 17.5 330 6.2 101730 52
2012-04-05 07:32:24 51°20.613 2°57.438 17 284 6.2 101720 52
2012-04-05 07:32:29 51°20.622 2°57.456 18 330 6.2 101720 52
2012-04-05 07:32:33 51°20.63 2°57.47 13.1 284 6.2 101730 52
2012-04-05 07:32:39 51°20.64 2°57.493 15.3 330 6.2 101730 52
2012-04-05 07:32:44 51°20.649 2°57.511 14.2 282 6.2 101720 51
2012-04-05 07:32:49 51°20.659 2°57.529 14 331 6.2 101720 51
2012-04-05 07:32:53 51°20.666 2°57.544 14.9 283 6.2 101720 51
2012-04-05 07:32:59 51°20.676 2°57.567 13.8 329 6.2 101720 51
2012-04-05 07:33:04 51°20.686 2°57.585 14.6 283 6.2 101720 52
2012-04-05 07:33:09 51°20.695 2°57.604 12.5 332 6.2 101720 52
2012-04-05 07:33:13 51°20.702 2°57.619 14.4 332 6.2 101720 51
2012-04-05 07:33:19 51°20.713 2°57.641 12.3 332 6.2 101720 51
2012-04-05 07:33:24 51°20.722 2°57.66 13.3 282 6.2 101720 51
2012-04-05 07:33:29 51°20.73 2°57.679 11.2 332 6.2 101720 51
2012-04-05 07:33:33 51°20.737 2°57.694 14.4 281 6.2 101720 51
2012-04-05 07:33:38 51°20.746 2°57.712 13.3 336 6.2 101720 51
2012-04-05 07:33:44 51°20.757 2°57.735 15.5 284 6.2 101720 52
2012-04-05 07:33:49 51°20.765 2°57.754 14.3 335 6.2 101720 52
2012-04-05 07:33:53 51°20.772 2°57.769 12.1 281 6.2 101740 51
2012-04-05 07:33:59 51°20.781 2°57.793 11.5 336 6.2 101740 51
2012-04-05 07:34:04 51°20.789 2°57.812 14.7 286 6.2 101720 51
2012-04-05 07:34:09 51°20.797 2°57.832 12.5 335 6.2 101720 51
2012-04-05 07:34:13 51°20.803 2°57.847 17.3 334 6.2 101730 51
2012-04-05 07:34:19 51°20.813 2°57.87 13.8 334 6.2 101730 51
2012-04-05 07:34:24 51°20.821 2°57.89 11.9 280 6.2 101730 52
2012-04-05 07:34:29 51°20.829 2°57.909 6.6 332 6.2 101730 52
2012-04-05 07:34:33 51°20.835 2°57.925 12.4 285 6.2 101710 51
2012-04-05 07:34:39 51°20.844 2°57.949 16.7 335 6.2 101710 51
2012-04-05 07:34:44 51°20.851 2°57.969 14.4 281 6.2 101730 52
2012-04-05 07:34:49 51°20.859 2°57.987 12.7 331 6.2 101730 52
2012-04-05 07:34:53 51°20.865 2°58.002 13.4 286 6.2 101720 52
2012-04-05 07:34:59 51°20.875 2°58.025 14.1 332 6.2 101720 52
2012-04-05 07:35:04 51°20.883 2°58.044 14.2 285 6.2 101710 52
2012-04-05 07:35:09 51°20.891 2°58.063 13.8 332 6.2 101710 52
2012-04-05 07:35:13 51°20.897 2°58.078 17.5 335 6.2 101740 52
2012-04-05 07:35:19 51°20.908 2°58.1 13.5 334 6.2 101740 52
2012-04-05 07:35:24 51°20.916 2°58.119 16.6 283 6.2 101720 53
2012-04-05 07:35:29 51°20.924 2°58.137 12.5 336 6.2 101720 53
2012-04-05 07:35:33 51°20.931 2°58.152 15.5 281 6.2 101720 52
2012-04-05 07:35:38 51°20.94 2°58.17 17.7 338 6.2 101720 52
2012-04-05 07:35:44 51°20.949 2°58.194 16.4 283 6.2 101720 51
2012-04-05 07:35:49 51°20.957 2°58.214 14.7 335 6.2 101720 51
2012-04-05 07:35:53 51°20.963 2°58.229 13.6 280 6.2 101720 52
2012-04-05 07:35:58 51°20.971 2°58.249 17.8 335 6.2 101720 52
2012-04-05 07:36:04 51°20.98 2°58.272 16.3 283 6.2 101720 52
2012-04-05 07:36:09 51°20.989 2°58.291 14.6 333 6.2 101720 52
2012-04-05 07:36:13 51°20.995 2°58.306 16.2 334 6.2 101710 51
2012-04-05 07:36:19 51°21.005 2°58.329 14.8 336 6.2 101710 51
2012-04-05 07:36:24 51°21.013 2°58.348 10.5 281 6.2 101710 52
2012-04-05 07:36:29 51°21.021 2°58.367 14.4 337 6.2 101710 52
2012-04-05 07:36:33 51°21.028 2°58.381 16.5 279 6.2 101720 52
2012-04-05 07:36:39 51°21.038 2°58.403 15.5 334 6.2 101720 52
2012-04-05 07:36:44 51°21.047 2°58.421 13.1 280 6.2 101720 50
2012-04-05 07:36:49 51°21.056 2°58.439 15.1 336 6.2 101720 50
2012-04-05 07:36:53 51°21.064 2°58.453 16.8 280 6.2 101740 52
2012-04-05 07:36:59 51°21.074 2°58.475 12.9 333 6.2 101740 52
2012-04-05 07:37:04 51°21.083 2°58.492 14.6 283 6.2 101730 51
2012-04-05 07:37:09 51°21.092 2°58.511 13.1 332 6.2 101730 51
2012-04-05 07:37:13 51°21.099 2°58.524 13.8 332 6.2 101720 51
2012-04-05 07:37:19 51°21.11 2°58.546 17 334 6.2 101720 51
2012-04-05 07:37:24 51°21.119 2°58.563 16.3 286 6.1 101730 52
2012-04-05 07:37:29 51°21.128 2°58.581 12.1 335 6.1 101730 52
2012-04-05 07:37:33 51°21.135 2°58.595 14.8 283 6.1 101720 51
2012-04-05 07:37:39 51°21.147 2°58.617 11.6 339 6.1 101720 51
2012-04-05 07:37:44 51°21.156 2°58.635 16.7 287 6.1 101730 51
2012-04-05 07:37:49 51°21.165 2°58.651 18.8 338 6.1 101730 51
2012-04-05 07:37:53 51°21.171 2°58.664 11.2 282 6.2 101730 52
2012-04-05 07:37:58 51°21.179 2°58.679 10.8 337 6.2 101730 52
2012-04-05 07:38:04 51°21.188 2°58.697 11.9 282 6.2 101720 52
2012-04-05 07:38:09 51°21.195 2°58.711 12.9 336 6.2 101720 52
2012-04-05 07:38:13 51°21.199 2°58.722 13.1 336 6.2 101720 52
2012-04-05 07:38:19 51°21.206 2°58.738 13.9 336 6.2 101720 52
2012-04-05 07:38:24 51°21.211 2°58.751 12.1 279 6.2 101710 52
2012-04-05 07:38:29 51°21.218 2°58.763 12.1 333 6.2 101710 52
2012-04-05 07:38:33 51°21.221 2°58.775 10.5 280 6.2 101720 52
2012-04-05 07:38:39 51°21.226 2°58.789 11.1 333 6.2 101720 52
2012-04-05 07:38:44 51°21.231 2°58.8 9.2 285 6.2 101720 52
2012-04-05 07:38:49 51°21.235 2°58.81 9.2 333 6.2 101720 52
2012-04-05 07:38:53 51°21.237 2°58.818 11.1 285 6.1 101720 52
2012-04-05 07:38:59 51°21.241 2°58.829 11.6 334 6.1 101720 52
2012-04-05 07:39:04 51°21.244 2°58.837 11.2 280 6.1 101730 51
2012-04-05 07:39:09 51°21.246 2°58.844 10.5 334 6.1 101730 51
2012-04-05 07:39:13 51°21.248 2°58.85 7.6 339 6.1 101730 52
2012-04-05 07:39:19 51°21.251 2°58.857 10.6 334 6.1 101730 52
2012-04-05 07:39:24 51°21.252 2°58.864 7.9 281 6.1 101730 50
2012-04-05 07:39:29 51°21.254 2°58.87 8.9 328 6.1 101730 50
2012-04-05 07:39:33 51°21.256 2°58.874 8.7 280 6.1 101720 51
2012-04-05 07:39:39 51°21.258 2°58.881 10.3 332 6.1 101720 51
2012-04-05 07:39:44 51°21.259 2°58.886 10.2 285 6.1 101710 52
2012-04-05 07:39:49 51°21.261 2°58.891 11.5 333 6.1 101710 52
2012-04-05 07:39:53 51°21.262 2°58.894 10.1 280 6.1 101740 52
2012-04-05 07:39:59 51°21.264 2°58.899 9.7 334 6.1 101740 52
2012-04-05 07:40:04 51°21.266 2°58.903 11.4 279 6.1 101730 52
2012-04-05 07:40:09 51°21.268 2°58.906 10.1 335 6.1 101730 52
2012-04-05 07:40:13 51°21.269 2°58.91 9.2 335 6.1 101730 52
2012-04-05 07:40:19 51°21.271 2°58.913 9 336 6.1 101730 52
2012-04-05 07:40:24 51°21.273 2°58.914 11.2 279 6.1 101720 52
2012-04-05 07:40:29 51°21.275 2°58.917 9.4 339 6.1 101720 52
2012-04-05 07:40:33 51°21.276 2°58.918 10.1 283 6.1 101720 51
2012-04-05 07:40:39 51°21.278 2°58.92 11.5 341 6.1 101720 51
2012-04-05 07:40:44 51°21.28 2°58.922 11 283 6 101740 51
2012-04-05 07:40:49 51°21.282 2°58.924 8.8 342 6 101740 51
2012-04-05 07:40:53 51°21.283 2°58.926 8 284 6 101740 52
2012-04-05 07:40:59 51°21.285 2°58.929 8 336 6 101740 52
2012-04-05 07:41:04 51°21.287 2°58.931 10.2 286 6.1 101720 51
2012-04-05 07:41:09 51°21.289 2°58.936 9.6 331 6.1 101720 51
2012-04-05 07:41:13 51°21.291 2°58.938 8.9 330 6.1 101730 52
2012-04-05 07:41:19 51°21.293 2°58.944 10.2 332 6.1 101730 52
2012-04-05 07:41:24 51°21.295 2°58.949 10.5 282 6 101730 51
2012-04-05 07:41:29 51°21.297 2°58.954 11.7 333 6 101730 51
2012-04-05 07:41:33 51°21.299 2°58.958 10.7 281 6 101740 51
2012-04-05 07:41:39 51°21.301 2°58.965 10.3 333 6 101740 51
2012-04-05 07:41:44 51°21.304 2°58.971 10.1 285 6 101730 52
2012-04-05 07:41:49 51°21.307 2°58.975 8.8 339 6 101730 52
2012-04-05 07:41:53 51°21.309 2°58.979 9.9 287 6 101730 51
2012-04-05 07:41:59 51°21.313 2°58.984 9.9 342 6 101730 51
2012-04-05 07:42:04 51°21.317 2°58.988 10.2 279 6.1 101720 51
2012-04-05 07:42:09 51°21.32 2°58.991 9.3 341 6.1 101720 51
2012-04-05 07:42:13 51°21.323 2°58.993 10.8 342 6 101730 52
2012-04-05 07:42:18 51°21.327 2°58.996 10.7 341 6 101730 52
2012-04-05 07:42:24 51°21.331 2°58.999 8.2 281 6.1 101720 52
2012-04-05 07:42:29 51°21.334 2°59 9.1 340 6.1 101720 52
2012-04-05 07:42:33 51°21.336 2°59.001 9.4 287 6.1 101730 52
2012-04-05 07:42:38 51°21.338 2°59.002 7.8 342 6.1 101730 52
2012-04-05 07:42:44 51°21.34 2°59.002 8.7 286 6.1 101730 52
2012-04-05 07:42:49 51°21.342 2°59.003 10.1 341 6.1 101730 52
2012-04-05 07:42:53 51°21.342 2°59.003 8.5 281 6.1 101730 52
2012-04-05 07:42:59 51°21.344 2°59.003 9.1 339 6.1 101730 52
2012-04-05 07:43:03 51°21.344 2°59.003 11.9 281 6 101730 52
2012-04-05 07:43:09 51°21.345 2°59.003 9.1 340 6 101730 52
2012-04-05 07:43:13 51°21.345 2°59.003 8.8 339 6 101730 52
2012-04-05 07:43:19 51°21.346 2°59.002 7.7 337 6 101730 52
2012-04-05 07:43:24 51°21.346 2°59.002 7.9 281 6 101730 52
2012-04-05 07:43:29 51°21.346 2°59.001 10.6 337 6 101730 52
2012-04-05 07:43:33 51°21.346 2°59.001 9.2 283 6 101720 52
2012-04-05 07:43:39 51°21.346 2°59 11.2 333 6 101720 52
2012-04-05 07:43:44 51°21.345 2°58.999 9.1 284 6 101720 53
2012-04-05 07:43:49 51°21.345 2°58.997 8.7 337 6 101720 53
2012-04-05 07:43:53 51°21.344 2°58.998 11 285 6 101720 52
2012-04-05 07:43:59 51°21.343 2°58.997 8.7 335 6 101720 52
2012-04-05 07:44:04 51°21.343 2°58.995 8.8 281 6 101720 51
2012-04-05 07:44:09 51°21.342 2°58.994 8.5 335 6 101720 51
2012-04-05 07:44:13 51°21.341 2°58.994 8.7 335 6 101720 51
2012-04-05 07:44:19 51°21.34 2°58.992 8.1 332 6 101720 51
2012-04-05 07:44:24 51°21.339 2°58.991 7 281 6 101730 51
2012-04-05 07:44:29 51°21.338 2°58.99 7.3 326 6 101730 51
2012-04-05 07:44:33 51°21.337 2°58.988 9.1 285 6 101730 52
2012-04-05 07:44:39 51°21.336 2°58.988 8.4 329 6 101730 52
2012-04-05 07:44:44 51°21.334 2°58.987 8.1 279 6 101730 50
2012-04-05 07:44:49 51°21.333 2°58.985 7.4 327 6 101730 50
2012-04-05 07:44:53 51°21.332 2°58.984 8.7 283 6 101740 52
2012-04-05 07:44:58 51°21.33 2°58.983 8.9 323 6 101740 52
2012-04-05 07:45:04 51°21.328 2°58.983 6.6 280 6 101730 52
2012-04-05 07:45:09 51°21.327 2°58.981 8.4 320 6 101730 52
2012-04-05 07:45:13 51°21.326 2°58.98 8.1 321 6 101730 51
2012-04-05 07:45:19 51°21.325 2°58.979 7.7 324 6 101730 51
2012-04-05 07:45:23 51°21.323 2°58.979 9.6 279 6 101730 51
2012-04-05 07:45:29 51°21.321 2°58.978 8.4 319 6 101730 51
2012-04-05 07:45:35 51°21.319 2°58.978 7.3 280 6 101730 52
2012-04-05 07:45:40 51°21.318 2°58.978 8.9 318 6 101730 52
2012-04-05 07:45:45 51°21.315 2°58.979 7.9 281 6 101730 52
2012-04-05 07:45:50 51°21.314 2°58.98 7.4 322 6 101730 52
2012-04-05 07:45:56 51°21.312 2°58.985 9.4 282 6 101740 51
2012-04-05 07:46:01 51°21.312 2°58.99 8.1 323 6 101740 51
2012-04-05 07:46:05 51°21.312 2°58.994 8.5 322 6 101720 51
2012-04-05 07:46:10 51°21.312 2°59 8.7 328 6 101720 51
2012-04-05 07:46:16 51°21.314 2°59.007 11.6 328 6 101730 51
2012-04-05 07:46:21 51°21.317 2°59.013 10.7 334 6 101730 51
2012-04-05 07:46:25 51°21.32 2°59.018 11.3 336 6 101720 52
2012-04-05 07:46:30 51°21.324 2°59.024 9.6 342 6 101720 52
2012-04-05 07:46:36 51°21.329 2°59.029 11.2 342 6 101730 52
2012-04-05 07:46:41 51°21.335 2°59.032 7.9 344 6 101730 52
2012-04-05 07:46:45 51°21.34 2°59.036 10.1 342 6 101720 51
2012-04-05 07:46:50 51°21.347 2°59.04 10.5 342 6 101720 51
2012-04-05 07:46:56 51°21.356 2°59.044 10.7 343 6 101730 51
2012-04-05 07:47:01 51°21.363 2°59.048 11.5 341 6 101730 51
2012-04-05 07:47:05 51°21.369 2°59.052 9.8 280 6.1 101720 52
2012-04-05 07:47:10 51°21.377 2°59.057 9.5 342 6.1 101720 52
2012-04-05 07:47:16 51°21.386 2°59.064 10.4 342 6 101720 51
2012-04-05 07:47:21 51°21.394 2°59.07 11.4 340 6 101720 51
2012-04-05 07:47:25 51°21.401 2°59.075 11.6 286 6.1 101720 51
2012-04-05 07:47:30 51°21.408 2°59.082 10.5 340 6.1 101720 51
2012-04-05 07:47:35 51°21.416 2°59.089 12.9 284 6.1 101720 52
2012-04-05 07:47:41 51°21.426 2°59.098 9.9 339 6.1 101720 52
2012-04-05 07:47:45 51°21.433 2°59.104 10.3 337 6 101720 52
2012-04-05 07:47:50 51°21.441 2°59.112 10.4 338 6 101720 52
2012-04-05 07:47:55 51°21.45 2°59.119 10.2 281 6 101730 52
2012-04-05 07:48:01 51°21.46 2°59.128 9 340 6 101730 52
2012-04-05 07:48:05 51°21.467 2°59.135 9.9 338 6 101720 52
2012-04-05 07:48:10 51°21.476 2°59.143 10.5 342 6 101720 52
2012-04-05 07:48:16 51°21.488 2°59.152 10.1 341 6 101730 52
2012-04-05 07:48:21 51°21.497 2°59.16 11 340 6 101730 52
2012-04-05 07:48:25 51°21.505 2°59.167 11.9 341 6 101730 52
2012-04-05 07:48:30 51°21.514 2°59.174 10.4 340 6 101730 52
2012-04-05 07:48:35 51°21.524 2°59.183 14.1 339 6.1 101720 52
2012-04-05 07:48:41 51°21.536 2°59.192 10.9 341 6.1 101720 52
2012-04-05 07:48:45 51°21.543 2°59.199 10.6 288 6.1 101720 52
2012-04-05 07:48:50 51°21.553 2°59.206 13.1 341 6.1 101720 52
2012-04-05 07:48:55 51°21.563 2°59.214 10.8 338 6.1 101720 52
2012-04-05 07:49:00 51°21.572 2°59.223 11.9 342 6.1 101720 52
2012-04-05 07:49:05 51°21.582 2°59.231 10.7 287 6.1 101730 51
2012-04-05 07:49:10 51°21.591 2°59.239 10.1 341 6.1 101730 51
2012-04-05 07:49:15 51°21.6 2°59.247 13.9 341 6.1 101720 53
2012-04-05 07:49:20 51°21.61 2°59.255 11.4 342 6.1 101720 53
2012-04-05 07:49:25 51°21.619 2°59.263 10.7 279 6.1 101730 53
2012-04-05 07:49:30 51°21.628 2°59.27 10.7 340 6.1 101730 53
2012-04-05 07:49:35 51°21.638 2°59.278 11.1 286 6.1 101720 52
2012-04-05 07:49:40 51°21.647 2°59.287 9.8 340 6.1 101720 52
2012-04-05 07:49:45 51°21.656 2°59.294 9 341 6.1 101710 52
2012-04-05 07:49:50 51°21.666 2°59.302 11 339 6.1 101710 52
2012-04-05 07:49:55 51°21.675 2°59.31 12.9 281 6.1 101720 52
2012-04-05 07:50:00 51°21.685 2°59.319 11.7 339 6.1 101720 52
2012-04-05 07:50:05 51°21.694 2°59.328 12.4 338 6.2 101730 52
2012-04-05 07:50:10 51°21.704 2°59.337 10.6 339 6.2 101730 52
2012-04-05 07:50:15 51°21.713 2°59.346 11.3 341 6.2 101730 53
2012-04-05 07:50:20 51°21.722 2°59.355 9.4 335 6.2 101730 53
2012-04-05 07:50:25 51°21.731 2°59.363 10.8 340 6.1 101730 53
2012-04-05 07:50:30 51°21.741 2°59.372 11.6 338 6.1 101730 53
2012-04-05 07:50:35 51°21.75 2°59.381 11.5 278 6.1 101720 53
2012-04-05 07:50:40 51°21.759 2°59.39 13.7 336 6.1 101720 53
2012-04-05 07:50:45 51°21.769 2°59.399 11.4 280 6.2 101720 53
2012-04-05 07:50:50 51°21.778 2°59.408 14.1 338 6.2 101720 53
2012-04-05 07:50:55 51°21.787 2°59.417 15.4 338 6.1 101730 52
2012-04-05 07:51:00 51°21.796 2°59.427 10.8 337 6.1 101730 52
2012-04-05 07:51:05 51°21.805 2°59.436 13.5 287 6.1 101720 52
2012-04-05 07:51:10 51°21.814 2°59.445 10.7 337 6.1 101720 52
2012-04-05 07:51:15 51°21.823 2°59.454 12.8 338 6.1 101730 52
2012-04-05 07:51:20 51°21.833 2°59.463 11.9 337 6.1 101730 52
2012-04-05 07:51:25 51°21.842 2°59.472 13.3 286 6.1 101730 52
2012-04-05 07:51:30 51°21.851 2°59.481 14.5 336 6.1 101730 52
2012-04-05 07:51:35 51°21.86 2°59.49 13.6 336 6.1 101730 52
2012-04-05 07:51:40 51°21.87 2°59.498 12.4 338 6.1 101730 52
2012-04-05 07:51:45 51°21.878 2°59.506 14.8 282 6.1 101730 52
2012-04-05 07:51:50 51°21.888 2°59.514 12.6 338 6.1 101730 52
2012-04-05 07:51:55 51°21.897 2°59.522 10.8 284 6.1 101720 52
2012-04-05 07:52:00 51°21.906 2°59.529 10.3 338 6.1 101720 52
2012-04-05 07:52:05 51°21.915 2°59.537 13.5 338 6.1 101720 52
2012-04-05 07:52:10 51°21.925 2°59.543 10.1 340 6.1 101720 52
2012-04-05 07:52:15 51°21.934 2°59.55 9.5 339 6.1 101730 52
2012-04-05 07:52:20 51°21.943 2°59.557 12.6 341 6.1 101730 52
2012-04-05 07:52:25 51°21.952 2°59.562 13.6 282 6.1 101730 52
2012-04-05 07:52:30 51°21.959 2°59.568 12.5 341 6.1 101730 52
2012-04-05 07:52:35 51°21.965 2°59.572 12.6 282 6.1 101720 52
2012-04-05 07:52:40 51°21.971 2°59.577 9.7 342 6.1 101720 52
2012-04-05 07:52:45 51°21.977 2°59.58 10.4 287 6 101720 51
2012-04-05 07:52:49 51°21.981 2°59.583 12.6 343 6 101720 51
2012-04-05 07:52:55 51°21.986 2°59.585 11.6 280 6 101730 52
2012-04-05 07:53:00 51°21.991 2°59.588 9.1 341 6 101730 52
2012-04-05 07:53:05 51°21.995 2°59.59 10 285 6 101730 52
2012-04-05 07:53:09 51°21.997 2°59.592 8.3 343 6 101730 52
2012-04-05 07:53:15 51°22.001 2°59.593 10 342 6 101740 51
2012-04-05 07:53:20 51°22.003 2°59.593 9.4 343 6 101740 51
2012-04-05 07:53:25 51°22.005 2°59.594 9.7 283 6 101720 52
2012-04-05 07:53:29 51°22.007 2°59.594 7.4 343 6 101720 52
2012-04-05 07:53:35 51°22.009 2°59.594 8.9 345 6 101730 52
2012-04-05 07:53:40 51°22.01 2°59.594 10.1 343 6 101730 52
2012-04-05 07:53:45 51°22.011 2°59.594 7.9 280 6.1 101730 52
2012-04-05 07:53:49 51°22.011 2°59.593 9.2 342 6.1 101730 52
2012-04-05 07:53:55 51°22.012 2°59.593 9.4 339 6 101730 52
2012-04-05 07:54:00 51°22.012 2°59.592 9.1 340 6 101730 52
2012-04-05 07:54:05 51°22.013 2°59.592 9.3 281 6 101730 52
2012-04-05 07:54:09 51°22.013 2°59.592 9.8 342 6 101730 52
2012-04-05 07:54:15 51°22.013 2°59.591 9.2 341 6 101730 52
2012-04-05 07:54:20 51°22.013 2°59.59 9.6 344 6 101730 52
2012-04-05 07:54:25 51°22.013 2°59.589 10 344 6 101730 52
2012-04-05 07:54:29 51°22.013 2°59.589 9.5 345 6 101730 52
2012-04-05 07:54:34 51°22.013 2°59.588 9.4 281 6 101730 52
2012-04-05 07:54:40 51°22.012 2°59.587 9 348 6 101730 52
2012-04-05 07:54:45 51°22.012 2°59.585 7.5 347 6 101730 52
2012-04-05 07:54:49 51°22.011 2°59.585 8 344 6 101730 52
2012-04-05 07:54:54 51°22.011 2°59.583 6.5 280 6 101730 51
2012-04-05 07:55:00 51°22.01 2°59.582 7.8 347 6 101730 51
2012-04-05 07:55:05 51°22.009 2°59.58 8.2 280 6 101730 52
2012-04-05 07:55:09 51°22.008 2°59.58 7 344 6 101730 52
2012-04-05 07:55:15 51°22.008 2°59.578 7.7 343 6 101730 52
2012-04-05 07:55:20 51°22.007 2°59.577 7.3 342 6 101730 52
2012-04-05 07:55:25 51°22.006 2°59.576 6.8 279 6 101730 51
2012-04-05 07:55:29 51°22.006 2°59.574 7.5 346 6 101730 51
2012-04-05 07:55:34 51°22.005 2°59.573 8.3 345 6 101740 51
2012-04-05 07:55:40 51°22.004 2°59.571 7.6 346 6 101740 51
2012-04-05 07:55:45 51°22.003 2°59.569 7 285 6 101730 51
2012-04-05 07:55:49 51°22.003 2°59.567 6.6 345 6 101730 51
2012-04-05 07:55:54 51°22.002 2°59.566 6.4 345 6 101740 52
2012-04-05 07:56:00 51°22.001 2°59.564 8.2 345 6 101740 52
2012-04-05 07:56:05 51°22 2°59.563 8.9 283 6 101740 52
2012-04-05 07:56:09 51°22 2°59.562 7.9 346 6 101740 52
2012-04-05 07:56:14 51°22 2°59.562 8.3 347 6 101730 52
2012-04-05 07:56:19 51°22.002 2°59.564 9.9 342 6 101730 52
2012-04-05 07:56:25 51°22.005 2°59.567 10.9 283 6 101740 51
2012-04-05 07:56:29 51°22.008 2°59.569 10 346 6 101740 51
2012-04-05 07:56:34 51°22.012 2°59.573 10.2 345 6 101730 52
2012-04-05 07:56:39 51°22.017 2°59.578 9.2 348 6 101730 52
2012-04-05 07:56:44 51°22.023 2°59.581 9.8 350 6 101730 52
2012-04-05 07:56:49 51°22.03 2°59.583 10.6 355 6 101730 52
2012-04-05 07:56:54 51°22.037 2°59.582 11.7 357 6 101730 52
2012-04-05 07:56:59 51°22.045 2°59.58 10.7 358 6 101730 52
2012-04-05 07:57:04 51°22.053 2°59.575 10.3 358 6 101720 52
2012-04-05 07:57:09 51°22.062 2°59.571 9.4 358 6 101720 52
2012-04-05 07:57:14 51°22.071 2°59.567 10.1 356 6 101710 51
2012-04-05 07:57:19 51°22.081 2°59.563 9.4 354 6 101710 51